Time;durP1;ratioP1;P1;durP2;ratioP2;P2;SDS_P1;SDS_P2;PMS_P1;PMS_P2;Temp;Humidity;BMP_temperature;BMP_pressure;BME280_temperature;BME280_humidity;BME280_pressure;Samples;Min_cycle;Max_cycle;Signal;HPM_P1;HPM_P2
2023/12/14 00:00:01;;;;;;;1.93;0.60;;;;;;;5.04;100.00;100066.34;5055886;28;20469;-67
2023/12/14 00:02:28;;;;;;;2.87;0.80;;;;;;;5.03;100.00;100067.44;5055071;28;21014;-67
2023/12/14 00:04:56;;;;;;;2.67;0.83;;;;;;;5.01;100.00;100069.63;5055005;28;20563;-67
2023/12/14 00:07:22;;;;;;;3.20;1.90;;;;;;;5.02;100.00;100065.84;5054378;28;20473;-69
2023/12/14 00:09:49;;;;;;;2.33;0.80;;;;;;;5.04;100.00;100080.56;5055381;28;20866;-67
2023/12/14 00:12:16;;;;;;;3.30;1.67;;;;;;;5.05;100.00;100084.88;5054906;28;20934;-67
2023/12/14 00:14:42;;;;;;;2.60;0.80;;;;;;;5.01;100.00;100086.50;5055083;28;20466;-67
2023/12/14 00:17:09;;;;;;;2.57;0.93;;;;;;;4.98;100.00;100095.13;5055773;28;20883;-67
2023/12/14 00:19:35;;;;;;;2.23;0.97;;;;;;;5.03;100.00;100097.75;5054533;28;20504;-67
2023/12/14 00:22:04;;;;;;;2.93;0.60;;;;;;;5.04;100.00;100103.94;5055032;28;20792;-67
2023/12/14 00:24:31;;;;;;;3.60;1.93;;;;;;;4.93;100.00;100105.06;5054540;28;20464;-67
2023/12/14 00:26:57;;;;;;;2.63;1.10;;;;;;;4.88;100.00;100118.53;5054923;28;20438;-67
2023/12/14 00:29:24;;;;;;;2.20;0.90;;;;;;;4.85;100.00;100111.00;5054918;28;20457;-67
2023/12/14 00:31:50;;;;;;;2.67;1.23;;;;;;;4.84;100.00;100115.56;5054677;28;20445;-67
2023/12/14 00:34:17;;;;;;;2.43;1.03;;;;;;;4.84;100.00;100120.13;5055068;28;20458;-66
2023/12/14 00:36:43;;;;;;;1.80;0.50;;;;;;;4.78;100.00;100127.38;5054540;28;20929;-66
2023/12/14 00:39:11;;;;;;;3.27;1.87;;;;;;;4.74;100.00;100123.66;5054671;28;20513;-66
2023/12/14 00:41:38;;;;;;;3.63;1.57;;;;;;;4.78;100.00;100128.22;5054624;28;20442;-66
2023/12/14 00:44:05;;;;;;;4.37;2.00;;;;;;;4.78;100.00;100130.06;5054880;28;20505;-67
2023/12/14 00:46:31;;;;;;;4.00;1.50;;;;;;;4.72;100.00;100133.84;5054480;28;20436;-67
2023/12/14 00:48:58;;;;;;;2.20;0.60;;;;;;;4.68;100.00;100133.59;5054815;28;20530;-67
2023/12/14 00:51:25;;;;;;;5.60;1.97;;;;;;;4.57;100.00;100137.38;5054097;28;20439;-67
2023/12/14 00:53:51;;;;;;;3.73;1.27;;;;;;;4.50;100.00;100143.03;5054378;28;20497;-67
2023/12/14 00:56:19;;;;;;;5.00;2.10;;;;;;;4.38;100.00;100147.06;5053984;28;20520;-67
2023/12/14 00:58:46;;;;;;;2.20;0.70;;;;;;;4.37;100.00;100162.34;5054332;28;20481;-67
2023/12/14 01:01:12;;;;;;;2.87;0.93;;;;;;;4.45;100.00;100164.50;5054702;28;20434;-67
2023/12/14 01:03:39;;;;;;;1.90;0.70;;;;;;;4.52;100.00;100162.34;5054165;28;20497;-67
2023/12/14 01:06:06;;;;;;;2.00;0.70;;;;;;;4.58;100.00;100173.84;5054003;28;20850;-67
2023/12/14 01:08:33;;;;;;;3.00;1.20;;;;;;;4.54;100.00;100173.59;5054153;28;20495;-67
2023/12/14 01:10:59;;;;;;;2.47;0.87;;;;;;;4.58;100.00;100187.25;5053971;28;20910;-67
2023/12/14 01:13:27;;;;;;;2.60;0.80;;;;;;;4.57;100.00;100184.88;5054406;28;20440;-68
2023/12/14 01:15:54;;;;;;;1.90;0.60;;;;;;;4.52;100.00;100177.63;5054300;28;20523;-68
2023/12/14 01:18:21;;;;;;;2.30;0.67;;;;;;;4.52;100.00;100194.53;5053716;28;20470;-67
2023/12/14 01:20:47;;;;;;;2.77;1.60;;;;;;;4.54;100.00;100194.25;5053508;28;20458;-67
2023/12/14 01:23:14;;;;;;;3.20;1.53;;;;;;;4.51;100.00;100194.78;5054028;28;20453;-67
2023/12/14 01:25:40;;;;;;;4.03;1.33;;;;;;;4.48;100.00;100198.00;5054454;28;20913;-66
2023/12/14 01:28:08;;;;;;;4.00;1.00;;;;;;;4.47;100.00;100207.94;5054344;28;20462;-66
2023/12/14 01:30:36;;;;;;;1.80;0.50;;;;;;;4.51;100.00;100206.31;5053737;28;20470;-66
2023/12/14 01:33:02;;;;;;;3.20;1.03;;;;;;;4.55;100.00;100211.94;5054168;28;20812;-66
2023/12/14 01:35:29;;;;;;;3.13;1.90;;;;;;;4.55;100.00;100214.63;5053660;28;20496;-66
2023/12/14 01:37:56;;;;;;;2.07;0.77;;;;;;;4.51;100.00;100218.91;5054232;28;20456;-66
2023/12/14 01:40:23;;;;;;;4.87;2.10;;;;;;;4.49;100.00;100213.81;5054071;28;20442;-66
2023/12/14 01:42:49;;;;;;;3.70;1.40;;;;;;;4.39;100.00;100224.56;5053776;28;20533;-66
2023/12/14 01:45:16;;;;;;;2.23;0.70;;;;;;;4.34;100.00;100231.78;5053579;28;20447;-67
2023/12/14 01:47:44;;;;;;;2.30;0.77;;;;;;;4.32;100.00;100237.44;5053421;28;20992;-67
2023/12/14 01:50:11;;;;;;;3.90;1.13;;;;;;;4.28;100.00;100231.00;5053646;28;20911;-68
2023/12/14 01:52:38;;;;;;;5.87;1.47;;;;;;;4.30;100.00;100232.34;5054026;28;20462;-67
2023/12/14 01:55:05;;;;;;;2.27;0.90;;;;;;;4.28;100.00;100239.03;5053489;28;20500;-67
2023/12/14 01:57:32;;;;;;;3.40;0.83;;;;;;;4.26;100.00;100233.94;5053549;28;20809;-67
2023/12/14 01:59:58;;;;;;;2.40;0.80;;;;;;;4.26;100.00;100233.94;5053749;28;20534;-67
2023/12/14 02:02:25;;;;;;;3.30;1.60;;;;;;;4.19;100.00;100233.41;5054049;28;20477;-67
2023/12/14 02:04:53;;;;;;;4.13;1.90;;;;;;;4.16;100.00;100238.47;5053199;28;20458;-67
2023/12/14 02:07:19;;;;;;;5.10;1.47;;;;;;;4.09;100.00;100237.94;5053675;28;20526;-67
2023/12/14 02:09:46;;;;;;;3.73;1.80;;;;;;;4.00;100.00;100243.84;5053509;28;20449;-67
2023/12/14 02:12:12;;;;;;;2.33;0.70;;;;;;;4.08;100.00;100245.19;5053936;28;20534;-67
2023/12/14 02:14:39;;;;;;;2.67;1.60;;;;;;;4.14;100.00;100246.00;5053380;28;20812;-67
2023/12/14 02:17:06;;;;;;;3.17;1.23;;;;;;;4.21;100.00;100251.91;5053692;28;20581;-67
2023/12/14 02:19:32;;;;;;;4.80;2.83;;;;;;;4.21;100.00;100252.72;5053408;28;20541;-66
2023/12/14 02:22:00;;;;;;;2.53;0.97;;;;;;;4.18;100.00;100253.25;5053394;28;20426;-66
2023/12/14 02:24:28;;;;;;;2.30;0.93;;;;;;;4.11;100.00;100254.56;5053316;28;20546;-66
2023/12/14 02:26:55;;;;;;;8.90;1.87;;;;;;;4.07;100.00;100256.97;5053426;28;20511;-66
2023/12/14 02:29:21;;;;;;;2.60;1.27;;;;;;;4.12;100.00;100262.34;5052963;28;20512;-66
2023/12/14 02:31:48;;;;;;;2.20;1.03;;;;;;;4.11;100.00;100271.44;5055222;28;20824;-66
2023/12/14 02:34:15;;;;;;;3.30;1.03;;;;;;;4.17;100.00;100272.28;5056806;28;20458;-66
2023/12/14 02:36:42;;;;;;;2.00;0.50;;;;;;;4.21;100.00;100268.00;5057046;28;20500;-66
2023/12/14 02:39:09;;;;;;;2.00;0.73;;;;;;;4.21;100.00;100274.16;5057248;28;20469;-67
2023/12/14 02:41:37;;;;;;;1.93;0.57;;;;;;;4.21;100.00;100271.47;5057058;28;20477;-67
2023/12/14 02:44:03;;;;;;;2.87;1.43;;;;;;;4.18;100.00;100265.84;5056579;28;20874;-67
2023/12/14 02:46:30;;;;;;;2.10;0.80;;;;;;;4.19;100.00;100264.75;5056960;28;20608;-68
2023/12/14 02:48:56;;;;;;;2.07;0.70;;;;;;;4.22;100.00;100266.91;5057101;28;20477;-67
2023/12/14 02:51:23;;;;;;;3.20;1.57;;;;;;;4.23;100.00;100266.63;5056966;28;20440;-70
2023/12/14 02:53:50;;;;;;;2.67;1.10;;;;;;;4.28;100.00;100268.50;5056336;28;20497;-68
2023/12/14 02:56:16;;;;;;;2.10;0.70;;;;;;;4.29;100.00;100276.31;5056279;28;21019;-67
2023/12/14 02:58:44;;;;;;;4.70;1.50;;;;;;;4.23;100.00;100285.41;5056729;28;20442;-67
2023/12/14 03:01:11;;;;;;;3.97;1.73;;;;;;;4.24;100.00;100288.88;5056708;28;20817;-67
2023/12/14 03:03:39;;;;;;;3.97;1.07;;;;;;;4.17;100.00;100294.53;5056624;28;20485;-67
2023/12/14 03:06:06;;;;;;;3.30;0.97;;;;;;;4.23;100.00;100301.50;5056200;28;20517;-67
2023/12/14 03:08:32;;;;;;;3.90;1.70;;;;;;;4.17;100.00;100305.25;5056622;28;20859;-67
2023/12/14 03:11:00;;;;;;;2.80;1.03;;;;;;;4.14;100.00;100308.44;5056706;28;20453;-67
2023/12/14 03:13:28;;;;;;;2.20;0.97;;;;;;;4.11;100.00;100313.53;5056450;28;20445;-67
2023/12/14 03:15:56;;;;;;;1.83;0.50;;;;;;;4.09;100.00;100318.34;5056466;28;20571;-67
2023/12/14 03:18:22;;;;;;;2.33;1.27;;;;;;;4.12;100.00;100324.00;5056350;28;21000;-67
2023/12/14 03:20:50;;;;;;;3.00;1.33;;;;;;;4.13;100.00;100320.25;5056286;28;20450;-67
2023/12/14 03:23:17;;;;;;;2.57;0.97;;;;;;;4.12;100.00;100318.63;5055923;28;20927;-67
2023/12/14 03:25:43;;;;;;;3.87;1.27;;;;;;;4.05;100.00;100326.09;5056680;28;20525;-67
2023/12/14 03:28:10;;;;;;;8.20;1.57;;;;;;;4.01;100.00;100322.34;5056237;28;20444;-67
2023/12/14 03:30:37;;;;;;;2.47;1.13;;;;;;;3.99;100.00;100329.84;5056215;28;20444;-67
2023/12/14 03:33:06;;;;;;;2.00;0.70;;;;;;;4.00;100.00;100326.91;5055759;28;20489;-67
2023/12/14 03:35:33;;;;;;;2.13;0.80;;;;;;;4.04;100.00;100333.34;5055990;28;20458;-67
2023/12/14 03:38:00;;;;;;;3.40;0.93;;;;;;;4.03;100.00;100330.94;5056074;28;20846;-67
2023/12/14 03:40:27;;;;;;;1.83;0.53;;;;;;;4.01;100.00;100333.06;5055966;28;20446;-67
2023/12/14 03:42:53;;;;;;;2.17;0.67;;;;;;;3.94;100.00;100340.53;5055757;28;20541;-67
2023/12/14 03:45:20;;;;;;;2.80;0.90;;;;;;;3.86;100.00;100344.53;5055501;28;21013;-67
2023/12/14 03:47:47;;;;;;;2.63;0.90;;;;;;;3.87;100.00;100348.03;5055830;28;20812;-67
2023/12/14 03:50:15;;;;;;;2.00;0.73;;;;;;;3.90;100.00;100361.72;5056009;28;20469;-67
2023/12/14 03:52:41;;;;;;;3.50;1.67;;;;;;;3.98;100.00;100360.38;5055707;28;20529;-67
2023/12/14 03:55:09;;;;;;;2.00;0.70;;;;;;;3.96;100.00;100362.53;5055499;28;20498;-67
2023/12/14 03:57:36;;;;;;;2.83;1.43;;;;;;;3.96;100.00;100365.22;5055527;28;20573;-67
2023/12/14 04:00:03;;;;;;;2.00;0.70;;;;;;;3.99;100.00;100367.38;5055538;28;20492;-67
2023/12/14 04:02:30;;;;;;;3.80;1.60;;;;;;;4.01;100.00;100373.25;5055494;28;20427;-67
2023/12/14 04:04:56;;;;;;;3.90;1.43;;;;;;;4.03;100.00;100376.50;5055542;28;20462;-67
2023/12/14 04:07:24;;;;;;;2.50;1.10;;;;;;;4.08;100.00;100381.06;5055473;28;20945;-67
2023/12/14 04:09:51;;;;;;;2.67;1.20;;;;;;;4.10;100.00;100384.28;5055383;28;20470;-67
2023/12/14 04:12:17;;;;;;;2.20;0.80;;;;;;;4.11;100.00;100385.88;5055273;28;20517;-67
2023/12/14 04:14:44;;;;;;;3.10;1.23;;;;;;;4.13;100.00;100381.88;5055391;28;20500;-67
2023/12/14 04:17:11;;;;;;;2.77;1.10;;;;;;;4.09;100.00;100394.19;5055056;28;20536;-67
2023/12/14 04:19:39;;;;;;;2.70;0.87;;;;;;;4.16;100.00;100396.63;5054610;28;20568;-67
2023/12/14 04:22:05;;;;;;;3.20;1.10;;;;;;;4.21;100.00;100399.34;5055401;28;20473;-67
2023/12/14 04:24:34;;;;;;;3.20;1.50;;;;;;;4.20;100.00;100395.81;5055178;28;20469;-67
2023/12/14 04:27:00;;;;;;;2.40;1.00;;;;;;;4.20;100.00;100398.50;5055093;28;20525;-67
2023/12/14 04:29:27;;;;;;;6.50;2.30;;;;;;;4.20;100.00;100398.50;5055046;28;20485;-67
2023/12/14 04:31:54;;;;;;;3.40;1.57;;;;;;;4.24;100.00;100404.97;5054919;28;20453;-67
2023/12/14 04:34:21;;;;;;;4.10;1.17;;;;;;;4.21;100.00;100408.19;5054502;28;20478;-67
2023/12/14 04:36:47;;;;;;;2.83;1.57;;;;;;;4.22;100.00;100406.31;5054758;28;21061;-67
2023/12/14 04:39:15;;;;;;;2.30;0.77;;;;;;;4.24;100.00;100409.50;5055034;28;20440;-67
2023/12/14 04:41:43;;;;;;;3.43;1.30;;;;;;;4.29;100.00;100406.84;5054716;28;20513;-67
2023/12/14 04:44:11;;;;;;;4.33;1.00;;;;;;;4.29;100.00;100409.53;5054696;28;20549;-67
2023/12/14 04:46:38;;;;;;;2.20;0.93;;;;;;;4.27;100.00;100406.31;5054645;28;20482;-67
2023/12/14 04:49:04;;;;;;;2.37;0.97;;;;;;;4.25;100.00;100413.81;5054752;28;20523;-67
2023/12/14 04:51:31;;;;;;;2.17;0.77;;;;;;;4.18;100.00;100418.63;5054682;28;20461;-67
2023/12/14 04:53:58;;;;;;;8.77;1.30;;;;;;;4.17;100.00;100428.53;5053851;28;20549;-67
2023/12/14 04:56:25;;;;;;;2.10;0.70;;;;;;;4.19;100.00;100420.22;5054394;28;20485;-68
2023/12/14 04:58:53;;;;;;;4.50;1.93;;;;;;;4.15;100.00;100427.97;5054416;28;20469;-67
2023/12/14 05:01:19;;;;;;;4.93;1.10;;;;;;;4.14;100.00;100430.94;5054028;28;20958;-67
2023/12/14 05:03:46;;;;;;;6.13;1.73;;;;;;;4.14;100.00;100438.97;5054640;28;20470;-67
2023/12/14 05:06:12;;;;;;;2.93;1.40;;;;;;;4.17;100.00;100443.81;5054356;28;20442;-67
2023/12/14 05:08:39;;;;;;;2.20;1.10;;;;;;;4.17;100.00;100447.31;5054356;28;21024;-67
2023/12/14 05:11:06;;;;;;;3.10;1.23;;;;;;;4.16;100.00;100459.09;5054759;28;20446;-67
2023/12/14 05:13:33;;;;;;;3.17;1.47;;;;;;;4.08;100.00;100461.47;5054770;28;20442;-67
2023/12/14 05:16:01;;;;;;;3.00;1.47;;;;;;;4.10;100.00;100460.13;5053839;28;20535;-67
2023/12/14 05:18:28;;;;;;;2.40;0.87;;;;;;;4.10;100.00;100467.34;5054028;28;20478;-67
2023/12/14 05:20:54;;;;;;;2.10;0.80;;;;;;;4.11;100.00;100471.66;5053682;28;20482;-67
2023/12/14 05:23:21;;;;;;;2.73;0.90;;;;;;;4.08;100.00;100481.03;5054024;28;20456;-67
2023/12/14 05:25:47;;;;;;;2.30;0.80;;;;;;;4.10;100.00;100492.28;5053471;28;20883;-67
2023/12/14 05:28:14;;;;;;;2.97;1.43;;;;;;;4.12;100.00;100492.84;5054057;28;20470;-67
2023/12/14 05:30:41;;;;;;;1.87;0.60;;;;;;;4.15;100.00;100494.19;5053864;28;20469;-66
2023/12/14 05:33:09;;;;;;;2.57;1.67;;;;;;;4.20;100.00;100500.38;5053438;28;20836;-67
2023/12/14 05:35:35;;;;;;;3.50;1.40;;;;;;;4.20;100.00;100492.31;5053501;28;20464;-67
2023/12/14 05:38:02;;;;;;;5.30;1.37;;;;;;;4.27;100.00;100500.94;5053715;28;20884;-67
2023/12/14 05:40:29;;;;;;;2.37;1.03;;;;;;;4.27;100.00;100497.47;5053561;28;20534;-67
2023/12/14 05:42:56;;;;;;;2.47;0.70;;;;;;;4.26;100.00;100501.22;5053722;28;20477;-67
2023/12/14 05:45:22;;;;;;;2.57;0.60;;;;;;;4.27;100.00;100500.94;5053126;28;20974;-67
2023/12/14 05:47:49;;;;;;;2.93;1.47;;;;;;;4.30;100.00;100513.84;5053656;28;20466;-66
2023/12/14 05:50:17;;;;;;;2.73;1.53;;;;;;;4.24;100.00;100525.59;5053544;28;20446;-66
2023/12/14 05:52:45;;;;;;;2.73;0.83;;;;;;;4.19;100.00;100524.75;5053128;28;20438;-65
2023/12/14 05:55:12;;;;;;;2.53;1.03;;;;;;;4.17;100.00;100529.59;5053061;28;20982;-65
2023/12/14 05:57:39;;;;;;;2.83;1.10;;;;;;;4.16;100.00;100531.47;5053057;28;20525;-68
2023/12/14 06:00:07;;;;;;;1.90;0.67;;;;;;;4.15;100.00;100543.22;5053426;28;20520;-70
2023/12/14 06:02:33;;;;;;;2.43;1.03;;;;;;;4.19;100.00;100538.97;5053559;28;20960;-68
2023/12/14 06:05:00;;;;;;;2.37;0.90;;;;;;;4.20;100.00;100540.56;5053432;28;20549;-68
2023/12/14 06:07:28;;;;;;;2.20;0.90;;;;;;;4.19;100.00;100538.97;5056960;28;20509;-68
2023/12/14 06:09:55;;;;;;;3.90;1.47;;;;;;;4.17;100.00;100545.69;5058034;28;20465;-68
2023/12/14 06:12:21;;;;;;;2.47;1.10;;;;;;;4.13;100.00;100560.66;5057791;28;20532;-68
2023/12/14 06:14:48;;;;;;;4.10;0.80;;;;;;;4.03;100.00;100559.53;5057410;28;20538;-68
2023/12/14 06:17:14;;;;;;;2.07;0.70;;;;;;;4.01;100.00;100558.16;5057465;28;20573;-68
2023/12/14 06:19:41;;;;;;;4.47;1.63;;;;;;;4.03;100.00;100564.09;5057456;28;20941;-68
2023/12/14 06:22:08;;;;;;;2.40;1.07;;;;;;;3.95;100.00;100569.91;5057786;28;20454;-68
2023/12/14 06:24:36;;;;;;;1.80;0.50;;;;;;;4.00;100.00;100569.94;5057693;28;20512;-68
2023/12/14 06:27:03;;;;;;;2.97;1.37;;;;;;;4.01;100.00;100575.03;5057290;28;20872;-69
2023/12/14 06:29:30;;;;;;;1.90;0.50;;;;;;;4.07;100.00;100573.19;5057164;28;20488;-68
2023/12/14 06:31:56;;;;;;;2.50;1.00;;;;;;;3.99;100.00;100576.38;5057342;28;20433;-68
2023/12/14 06:34:23;;;;;;;1.90;0.63;;;;;;;4.04;100.00;100579.91;5056741;28;21037;-68
2023/12/14 06:36:50;;;;;;;2.00;0.70;;;;;;;4.10;100.00;100587.97;5056929;28;20520;-68
2023/12/14 06:39:17;;;;;;;2.83;1.13;;;;;;;4.17;100.00;100589.38;5057325;28;20445;-68
2023/12/14 06:41:44;;;;;;;3.73;1.33;;;;;;;4.21;100.00;100590.47;5056988;28;20447;-71
2023/12/14 06:44:11;;;;;;;3.80;1.17;;;;;;;4.20;100.00;100598.75;5057238;28;20470;-70
2023/12/14 06:46:38;;;;;;;1.90;0.70;;;;;;;4.18;100.00;100608.94;5057226;28;20442;-69
2023/12/14 06:49:04;;;;;;;4.57;1.53;;;;;;;4.16;100.00;100605.69;5057037;28;20975;-70
2023/12/14 06:51:31;;;;;;;2.10;0.80;;;;;;;4.15;100.00;100610.25;5056929;28;20469;-69
2023/12/14 06:53:58;;;;;;;2.73;1.07;;;;;;;4.12;100.00;100616.13;5057188;28;20462;-69
2023/12/14 06:56:24;;;;;;;2.60;1.10;;;;;;;4.12;100.00;100613.47;5056498;28;20945;-69
2023/12/14 06:58:52;;;;;;;3.70;1.33;;;;;;;4.16;100.00;100627.13;5056591;28;20488;-69
2023/12/14 07:01:19;;;;;;;2.40;0.87;;;;;;;4.19;100.00;100638.16;5056749;28;20476;-69
2023/12/14 07:03:46;;;;;;;2.73;1.23;;;;;;;4.18;100.00;100635.75;5056422;28;20545;-69
2023/12/14 07:06:14;;;;;;;2.67;1.37;;;;;;;4.19;100.00;100640.84;5056698;28;20430;-69
2023/12/14 07:08:41;;;;;;;2.57;1.17;;;;;;;4.19;100.00;100645.41;5056665;28;20442;-71
2023/12/14 07:11:07;;;;;;;2.50;0.97;;;;;;;4.22;100.00;100651.06;5056853;28;20449;-67
2023/12/14 07:13:36;;;;;;;2.90;1.27;;;;;;;4.24;100.00;100653.47;5056149;28;20949;-67
2023/12/14 07:16:04;;;;;;;3.37;1.23;;;;;;;4.18;100.00;100660.66;5056732;28;20454;-70
2023/12/14 07:18:31;;;;;;;2.60;0.90;;;;;;;4.18;100.00;100668.72;5056159;28;20580;-71
2023/12/14 07:20:58;;;;;;;2.10;0.70;;;;;;;4.17;100.00;100668.97;5070140;22;20498;-75
2023/12/14 07:23:24;;;;;;;2.83;0.87;;;;;;;4.19;100.00;100678.38;5056207;28;20533;-75
2023/12/14 07:25:51;;;;;;;2.47;1.00;;;;;;;4.20;100.00;100682.66;5055609;28;20807;-75
2023/12/14 07:28:17;;;;;;;5.23;1.70;;;;;;;4.21;100.00;100686.16;5056157;28;20470;-75
2023/12/14 07:30:44;;;;;;;2.67;1.03;;;;;;;4.19;100.00;100682.91;5056203;28;20438;-72
2023/12/14 07:33:12;;;;;;;2.50;1.03;;;;;;;4.19;100.00;100694.44;5056188;28;20525;-72
2023/12/14 07:35:39;;;;;;;7.57;2.40;;;;;;;4.21;100.00;100702.25;5055343;28;20998;-72
2023/12/14 07:38:05;;;;;;;4.23;1.80;;;;;;;4.22;100.00;100703.88;5055542;28;20490;-72
2023/12/14 07:40:32;;;;;;;2.40;1.13;;;;;;;4.22;100.00;100706.53;5055292;28;20470;-70
2023/12/14 07:42:59;;;;;;;2.57;1.23;;;;;;;4.25;100.00;100709.53;5055538;28;20525;-70
2023/12/14 07:45:25;;;;;;;3.03;1.33;;;;;;;4.28;100.00;100709.00;5055441;28;20498;-70
2023/12/14 07:47:52;;;;;;;3.90;1.33;;;;;;;4.25;100.00;100711.38;5055245;28;20473;-71
2023/12/14 07:50:20;;;;;;;4.40;1.80;;;;;;;4.30;100.00;100716.81;5055298;28;20441;-70
2023/12/14 07:52:46;;;;;;;3.70;1.50;;;;;;;4.33;100.00;100721.63;5055885;28;20494;-71
2023/12/14 07:55:14;;;;;;;3.13;1.37;;;;;;;4.37;100.00;100720.06;5055371;28;20470;-69
2023/12/14 07:57:41;;;;;;;2.93;1.60;;;;;;;4.40;100.00;100724.91;5055280;28;20486;-69
2023/12/14 08:00:10;;;;;;;2.20;0.63;;;;;;;4.39;100.00;100720.63;5054966;28;20449;-69
2023/12/14 08:02:36;;;;;;;3.50;1.30;;;;;;;4.44;100.00;100726.03;5055227;28;20942;-69
2023/12/14 08:05:03;;;;;;;2.30;0.93;;;;;;;4.47;100.00;100727.38;5055446;28;20466;-70
2023/12/14 08:07:31;;;;;;;2.97;1.30;;;;;;;4.46;100.00;100739.97;5055530;28;20430;-70
2023/12/14 08:09:58;;;;;;;2.53;1.27;;;;;;;4.38;100.00;100742.31;5054690;28;20521;-71
2023/12/14 08:12:25;;;;;;;5.97;1.80;;;;;;;4.34;100.00;100741.22;5054939;28;20438;-71
2023/12/14 08:14:52;;;;;;;2.37;1.17;;;;;;;4.37;100.00;100754.13;5054969;28;20550;-71
2023/12/14 08:17:19;;;;;;;2.63;1.57;;;;;;;4.35;100.00;100754.38;5055217;28;20442;-71
2023/12/14 08:19:45;;;;;;;2.70;1.53;;;;;;;4.31;100.00;100753.28;5055069;28;20829;-71
2023/12/14 08:22:12;;;;;;;4.90;1.60;;;;;;;4.35;100.00;100754.38;5054805;28;20525;-70
2023/12/14 08:24:40;;;;;;;4.20;2.00;;;;;;;4.36;100.00;100763.22;5055157;28;20465;-70
2023/12/14 08:27:07;;;;;;;2.97;0.80;;;;;;;4.42;100.00;100764.88;5054698;28;20779;-69
2023/12/14 08:29:33;;;;;;;2.00;0.70;;;;;;;4.34;100.00;100766.19;5054114;28;20485;-70
2023/12/14 08:32:00;;;;;;;3.60;1.47;;;;;;;4.31;100.00;100772.03;5054617;28;20529;-70
2023/12/14 08:34:27;;;;;;;4.03;1.67;;;;;;;4.26;100.00;100780.84;5054579;28;20493;-70
2023/12/14 08:36:54;;;;;;;2.93;1.20;;;;;;;4.35;100.00;100780.38;5054627;28;20449;-69
2023/12/14 08:39:20;;;;;;;3.50;1.70;;;;;;;4.36;100.00;100782.81;5054120;28;21044;-70
2023/12/14 08:41:49;;;;;;;4.47;2.40;;;;;;;4.38;100.00;100794.06;5054967;28;20473;-70
2023/12/14 08:44:15;;;;;;;2.50;1.30;;;;;;;4.38;100.00;100798.63;5054489;28;20470;-71
2023/12/14 08:46:43;;;;;;;2.63;1.00;;;;;;;4.44;100.00;100798.44;5054661;28;20517;-70
2023/12/14 08:49:09;;;;;;;2.50;1.60;;;;;;;4.43;100.00;100798.69;5054184;28;20848;-70
2023/12/14 08:51:36;;;;;;;5.40;2.77;;;;;;;4.45;100.00;100799.25;5054589;28;20442;-69
2023/12/14 08:54:03;;;;;;;4.90;1.83;;;;;;;4.51;100.00;100803.56;5054241;28;20553;-70
2023/12/14 08:56:29;;;;;;;3.07;1.63;;;;;;;4.50;100.00;100812.69;5053813;28;20438;-70
2023/12/14 08:58:59;;;;;;;3.80;1.73;;;;;;;4.51;100.00;100817.78;5053828;28;20520;-69
2023/12/14 09:01:26;;;;;;;4.37;2.20;;;;;;;4.48;100.00;100825.56;5053800;28;20933;-69
2023/12/14 09:03:52;;;;;;;2.43;1.23;;;;;;;4.48;100.00;100833.59;5054023;28;20469;-70
2023/12/14 09:06:19;;;;;;;3.70;1.60;;;;;;;4.53;100.00;100833.66;5054337;28;20529;-70
2023/12/14 09:08:46;;;;;;;2.47;1.20;;;;;;;4.51;100.00;100860.72;5053832;28;20521;-70
2023/12/14 09:11:15;;;;;;;2.47;1.03;;;;;;;4.51;100.00;100851.84;5053855;28;20466;-70
2023/12/14 09:13:42;;;;;;;6.73;2.67;;;;;;;4.44;100.00;100857.44;5053938;28;20470;-70
2023/12/14 09:16:10;;;;;;;2.37;0.87;;;;;;;4.47;100.00;100862.31;5054195;28;20446;-70
2023/12/14 09:18:37;;;;;;;3.00;1.20;;;;;;;4.53;100.00;100863.97;5053481;28;20577;-69
2023/12/14 09:21:04;;;;;;;3.23;1.50;;;;;;;4.54;100.00;100873.63;5053546;28;20442;-68
2023/12/14 09:23:30;;;;;;;4.23;1.57;;;;;;;4.53;100.00;100873.88;5053627;28;20434;-67
2023/12/14 09:25:58;;;;;;;3.17;1.97;;;;;;;4.55;100.00;100874.44;5053870;28;20434;-70
2023/12/14 09:28:25;;;;;;;5.10;2.10;;;;;;;4.57;100.00;100880.38;5053701;28;20438;-70
2023/12/14 09:30:52;;;;;;;5.00;1.10;;;;;;;4.53;100.00;100885.41;5053462;28;20947;-71
2023/12/14 09:33:20;;;;;;;4.77;2.40;;;;;;;4.53;100.00;100888.09;5053470;28;20474;-71
2023/12/14 09:35:47;;;;;;;8.93;2.20;;;;;;;4.44;100.00;100883.44;5053980;28;20796;-72
2023/12/14 09:38:16;;;;;;;4.77;2.40;;;;;;;4.47;100.00;100893.66;5053787;28;20486;-72
2023/12/14 09:40:44;;;;;;;3.80;1.60;;;;;;;4.41;100.00;100883.94;5053544;28;20541;-71
2023/12/14 09:43:11;;;;;;;6.67;1.27;;;;;;;4.47;100.00;100889.13;5053406;28;20477;-71
2023/12/14 09:45:44;;;;;;;4.00;2.03;;;;;;;4.47;100.00;100890.97;5053698;28;20465;-71
2023/12/14 09:48:12;;;;;;;3.63;1.53;;;;;;;4.46;100.00;100895.53;5053103;28;20917;-71
2023/12/14 09:50:41;;;;;;;3.40;1.60;;;;;;;4.45;100.00;100899.28;5053735;28;20541;-71
2023/12/14 09:53:08;;;;;;;10.17;3.57;;;;;;;4.47;100.00;100897.19;5053649;28;20581;-71
2023/12/14 09:55:34;;;;;;;3.33;1.10;;;;;;;4.52;100.00;100901.78;5052876;28;20458;-71
2023/12/14 09:58:02;;;;;;;3.83;1.63;;;;;;;4.55;100.00;100901.25;5053565;28;20486;-71
2023/12/14 10:00:36;;;;;;;4.93;2.20;;;;;;;4.47;100.00;100910.59;5053644;28;20446;-71
2023/12/14 10:03:26;;;;;;;4.10;1.70;;;;;;;4.48;100.00;100911.38;5053240;28;20544;-71
2023/12/14 10:05:54;;;;;;;5.67;2.70;;;;;;;4.50;100.00;100904.69;5047002;28;20549;-71
2023/12/14 10:08:21;;;;;;;9.20;2.30;;;;;;;4.51;100.00;100905.50;5053481;28;20458;-71
2023/12/14 10:10:51;;;;;;;6.03;2.30;;;;;;;4.57;100.00;100909.88;5053176;28;20437;-71
2023/12/14 10:13:17;;;;;;;4.33;1.40;;;;;;;4.60;100.00;100914.72;5053335;28;20442;-71
2023/12/14 10:15:46;;;;;;;5.07;2.37;;;;;;;4.64;100.00;100920.38;5053059;28;20438;-71
2023/12/14 10:18:13;;;;;;;3.90;1.83;;;;;;;4.55;100.00;100926.19;5052932;28;20482;-71
2023/12/14 10:20:40;;;;;;;6.20;1.57;;;;;;;4.52;100.00;100934.78;5053127;28;20489;-71
2023/12/14 10:23:10;;;;;;;10.00;1.70;;;;;;;4.50;100.00;100939.56;5053152;28;20454;-71
2023/12/14 10:25:36;;;;;;;3.70;2.37;;;;;;;4.54;100.00;100932.63;5052835;28;20494;-71
2023/12/14 10:28:03;;;;;;;2.43;1.00;;;;;;;4.55;100.00;100931.56;5052912;28;20439;-71
2023/12/14 10:30:31;;;;;;;4.60;1.90;;;;;;;4.63;100.00;100934.88;5052609;28;20454;-71
2023/12/14 10:32:58;;;;;;;5.97;2.13;;;;;;;4.64;100.00;100931.94;5052667;28;20438;-71
2023/12/14 10:35:24;;;;;;;2.30;1.00;;;;;;;4.69;100.00;100939.22;5053177;28;20836;-71
2023/12/14 10:37:52;;;;;;;6.43;2.20;;;;;;;4.71;100.00;100948.66;5052614;28;20449;-71
2023/12/14 10:40:21;;;;;;;2.77;1.47;;;;;;;4.70;100.00;100946.22;5053200;28;20448;-71
2023/12/14 10:42:50;;;;;;;2.60;1.10;;;;;;;4.65;100.00;100949.66;5052692;28;20452;-71
2023/12/14 10:45:19;;;;;;;7.47;2.60;;;;;;;4.65;100.00;100965.75;5053054;28;20892;-71
2023/12/14 10:47:47;;;;;;;6.27;1.63;;;;;;;4.63;100.00;100962.50;5053474;28;20545;-71
2023/12/14 10:50:14;;;;;;;4.90;1.43;;;;;;;4.69;100.00;100971.41;5053152;28;20525;-71
2023/12/14 10:52:42;;;;;;;4.73;2.00;;;;;;;4.64;100.00;100969.47;5054181;28;20980;-71
2023/12/14 10:55:16;;;;;;;3.27;1.30;;;;;;;4.62;100.00;100966.25;5056413;28;21004;-71
2023/12/14 10:57:44;;;;;;;3.13;1.80;;;;;;;4.65;100.00;100964.94;5056476;28;20430;-71
2023/12/14 11:00:12;;;;;;;3.00;1.40;;;;;;;4.62;100.00;100966.25;5055998;28;20488;-71
2023/12/14 11:02:42;;;;;;;4.10;1.37;;;;;;;4.64;100.00;100964.13;5056676;28;20503;-71
2023/12/14 11:05:12;;;;;;;2.67;1.33;;;;;;;4.69;100.00;100961.50;5056189;28;20575;-71
2023/12/14 11:07:46;;;;;;;6.70;3.90;;;;;;;4.72;100.00;100961.00;5056542;28;20430;-71
2023/12/14 11:10:13;;;;;;;5.33;2.70;;;;;;;4.79;100.00;100958.13;5056362;28;20438;-71
2023/12/14 11:12:52;;;;;;;4.70;1.73;;;;;;;4.86;100.00;100974.00;5056571;28;20508;-71
2023/12/14 11:15:19;;;;;;;4.27;2.30;;;;;;;4.92;100.00;100975.69;5056430;28;20540;-71
2023/12/14 11:18:23;;;;;;;5.20;1.80;;;;;;;4.92;100.00;100973.00;5055766;28;20442;-71
2023/12/14 11:20:50;;;;;;;4.37;1.83;;;;;;;4.86;100.00;100982.06;5056058;28;20870;-71
2023/12/14 11:23:26;;;;;;;5.77;1.97;;;;;;;4.87;100.00;100979.13;5055720;28;20449;-71